Time;durP1;ratioP1;P1;durP2;ratioP2;P2;SDS_P1;SDS_P2;PMS_P1;PMS_P2;Temp;Humidity;BMP_temperature;BMP_pressure;BME280_temperature;BME280_humidity;BME280_pressure;Samples;Min_cycle;Max_cycle;Signal;HPM_P1;HPM_P2
2021/09/11 00:02:19;;;;;;;12.25;9.07;;;;;;;19.15;55.88;100225.41;4882949;28;96766;-81
2021/09/11 00:04:46;;;;;;;13.63;8.50;;;;;;;19.08;55.78;100224.13;4898707;28;97062;-80
2021/09/11 00:07:12;;;;;;;13.63;9.60;;;;;;;19.06;56.17;100218.09;4897663;28;101308;-81
2021/09/11 00:09:38;;;;;;;16.45;9.20;;;;;;;19.10;55.57;100223.06;4882310;28;100970;-81
2021/09/11 00:12:04;;;;;;;12.95;9.05;;;;;;;19.08;55.80;100211.72;4898763;28;96656;-81
2021/09/11 00:14:29;;;;;;;15.30;9.02;;;;;;;19.01;55.93;100207.78;4930840;28;96779;-81
2021/09/11 00:16:55;;;;;;;14.20;8.90;;;;;;;19.01;56.17;100218.41;4914538;28;97539;-81
2021/09/11 00:19:20;;;;;;;14.88;8.93;;;;;;;19.02;56.50;100222.75;4882181;28;101285;-81
2021/09/11 00:21:46;;;;;;;13.77;9.05;;;;;;;18.99;56.27;100210.56;4914779;28;96627;-81
2021/09/11 00:24:11;;;;;;;15.82;8.88;;;;;;;18.97;56.50;100216.94;4898729;28;96851;-81
2021/09/11 00:26:38;;;;;;;13.43;9.13;;;;;;;19.08;55.77;100219.69;4882191;28;100960;-81
2021/09/11 00:29:04;;;;;;;10.60;7.88;;;;;;;19.07;56.27;100217.97;4915597;28;98396;-81
2021/09/11 00:31:29;;;;;;;12.20;8.82;;;;;;;18.83;56.75;100214.41;4901105;28;96540;-81
2021/09/11 00:33:55;;;;;;;10.13;8.35;;;;;;;18.73;56.95;100209.72;4917769;28;96934;-81
2021/09/11 00:36:20;;;;;;;14.52;8.63;;;;;;;18.69;56.87;100215.31;4917592;28;97744;-81
2021/09/11 00:38:46;;;;;;;14.00;7.95;;;;;;;18.63;57.02;100200.66;4901607;28;97491;-80
2021/09/11 00:41:11;;;;;;;15.38;8.68;;;;;;;18.66;57.42;100208.41;4901443;28;96586;-81
2021/09/11 00:43:47;;;;;;;9.95;8.88;;;;;;;18.51;57.71;100189.06;4901775;28;96768;-81
2021/09/11 00:46:13;;;;;;;12.07;8.45;;;;;;;18.58;57.38;100199.25;4917100;28;101870;-81
2021/09/11 00:48:38;;;;;;;13.93;9.85;;;;;;;18.69;57.22;100210.00;4917754;28;98647;-81
2021/09/11 00:51:04;;;;;;;11.55;9.27;;;;;;;18.61;57.57;100201.72;4885489;28;96573;-81
2021/09/11 00:53:30;;;;;;;11.73;8.77;;;;;;;18.55;57.75;100208.28;4917338;28;96940;-81
2021/09/11 00:55:56;;;;;;;13.05;9.20;;;;;;;18.51;57.82;100207.66;4900777;28;98022;-81
2021/09/11 00:58:21;;;;;;;15.40;9.43;;;;;;;18.47;57.67;100206.19;4900837;28;97818;-81
2021/09/11 01:00:47;;;;;;;12.65;9.00;;;;;;;18.44;58.03;100210.84;4901252;28;96629;-80
2021/09/11 01:03:12;;;;;;;17.88;8.98;;;;;;;18.42;57.77;100204.78;4901633;28;96843;-81
2021/09/11 01:05:39;;;;;;;12.77;9.20;;;;;;;18.45;57.99;100204.59;4917405;28;97544;-81
2021/09/11 01:08:05;;;;;;;12.93;7.97;;;;;;;18.44;57.53;100201.09;4932775;28;100897;-81
2021/09/11 01:10:30;;;;;;;17.13;9.18;;;;;;;18.41;57.95;100205.72;4933238;28;96737;-81
2021/09/11 01:12:56;;;;;;;15.90;8.77;;;;;;;18.45;57.48;100204.59;4901894;28;96916;-81
2021/09/11 01:15:35;;;;;;;13.27;8.88;;;;;;;18.46;57.35;100207.13;4932890;28;100926;-81
2021/09/11 01:18:01;;;;;;;15.35;9.05;;;;;;;18.39;57.33;100212.97;4884716;28;101334;-81
2021/09/11 01:20:27;;;;;;;10.55;8.45;;;;;;;18.33;57.52;100195.66;4932908;28;96607;-81
2021/09/11 01:22:52;;;;;;;12.00;8.35;;;;;;;18.33;58.04;100203.63;4916772;28;96968;-80
2021/09/11 01:25:18;;;;;;;16.48;9.43;;;;;;;18.45;57.53;100199.28;4900593;28;101697;-81
2021/09/11 01:27:44;;;;;;;16.85;9.10;;;;;;;18.31;57.84;100195.72;4916879;28;97642;-81
2021/09/11 01:30:15;;;;;;;12.18;8.00;;;;;;;18.34;57.69;100202.66;4932773;28;96650;-81
2021/09/11 01:32:41;;;;;;;9.43;7.85;;;;;;;18.27;57.67;100194.25;4916748;28;96947;-81
2021/09/11 01:35:07;;;;;;;11.65;8.13;;;;;;;18.19;58.15;100185.94;4884261;28;101391;-81
2021/09/11 01:37:33;;;;;;;13.32;7.88;;;;;;;18.16;58.40;100194.13;4933210;28;97927;-81
2021/09/11 01:39:59;;;;;;;11.90;8.05;;;;;;;18.27;57.77;100191.59;4931981;28;97275;-81
2021/09/11 01:42:26;;;;;;;14.48;8.98;;;;;;;18.16;58.24;100203.91;4884669;28;96959;-81
2021/09/11 01:45:05;;;;;;;11.55;8.23;;;;;;;18.17;57.98;100205.59;4931901;28;101542;-81
2021/09/11 01:47:31;;;;;;;10.13;8.13;;;;;;;18.12;58.08;100199.75;4916330;28;99877;-81
2021/09/11 01:49:56;;;;;;;12.77;7.97;;;;;;;18.08;58.37;100205.25;4916647;28;96568;-81
2021/09/11 01:52:22;;;;;;;10.77;7.90;;;;;;;18.03;58.32;100210.03;4900477;28;96944;-81
2021/09/11 01:54:47;;;;;;;16.08;8.45;;;;;;;17.97;58.54;100197.16;4932555;28;97389;-81
2021/09/11 01:57:13;;;;;;;14.65;7.93;;;;;;;18.07;58.41;100203.56;4916270;28;98019;-80
2021/09/11 01:59:40;;;;;;;11.80;8.00;;;;;;;18.05;58.51;100204.63;4884254;28;96613;-81
2021/09/11 02:02:06;;;;;;;8.55;7.60;;;;;;;18.07;58.16;100202.72;4916954;28;96652;-81
2021/09/11 02:04:32;;;;;;;14.57;7.80;;;;;;;18.06;58.03;100201.00;4916179;28;98375;-82
2021/09/11 02:06:58;;;;;;;10.40;7.43;;;;;;;18.09;57.84;100191.03;4915933;28;101259;-80
2021/09/11 02:09:24;;;;;;;10.68;7.88;;;;;;;18.10;57.73;100205.16;4883916;28;96569;-81
2021/09/11 02:11:50;;;;;;;14.15;7.63;;;;;;;18.09;57.96;100208.75;4932354;28;96834;-81
2021/09/11 02:14:15;;;;;;;11.20;7.50;;;;;;;18.12;57.53;100195.28;4899995;28;98008;-80
2021/09/11 02:16:41;;;;;;;8.32;7.47;;;;;;;18.04;57.65;100195.81;4916099;28;97404;-81
2021/09/11 02:19:06;;;;;;;13.77;7.90;;;;;;;18.23;57.21;100200.72;4899970;28;96696;-80
2021/09/11 02:21:32;;;;;;;13.73;7.93;;;;;;;18.00;57.64;100196.09;4900206;28;96970;-81
2021/09/11 02:23:57;;;;;;;13.45;8.20;;;;;;;18.05;57.35;100197.50;4883733;28;101140;-79
2021/09/11 02:26:23;;;;;;;11.48;7.72;;;;;;;17.93;57.61;100192.16;4884120;28;101469;-80
2021/09/11 02:28:48;;;;;;;11.80;7.78;;;;;;;17.95;57.99;100196.44;4900267;28;96805;-80
2021/09/11 02:31:14;;;;;;;13.27;8.25;;;;;;;17.96;57.97;100203.44;4899863;28;96858;-81
2021/09/11 02:33:41;;;;;;;21.08;8.50;;;;;;;17.85;58.11;100184.69;4883125;28;101499;-81
2021/09/11 02:36:07;;;;;;;10.35;8.13;;;;;;;17.90;57.16;100192.38;4931755;28;97993;-80
2021/09/11 02:38:32;;;;;;;12.25;7.63;;;;;;;17.97;56.95;100196.31;4883984;28;96778;-81
2021/09/11 02:40:58;;;;;;;11.35;7.60;;;;;;;17.94;57.41;100196.50;4900161;28;96835;-80
2021/09/11 02:43:23;;;;;;;13.55;7.70;;;;;;;18.03;57.31;100195.91;4899335;28;101160;-80
2021/09/11 02:45:49;;;;;;;13.35;8.43;;;;;;;17.90;57.36;100203.00;4899352;28;99336;-79
2021/09/11 02:48:14;;;;;;;17.58;7.82;;;;;;;17.81;57.50;100200.00;4899487;28;96722;-81
2021/09/11 02:50:40;;;;;;;10.95;7.97;;;;;;;17.78;58.00;100202.00;4899945;28;96881;-81
2021/09/11 02:53:06;;;;;;;11.98;8.02;;;;;;;17.75;57.39;100180.94;4882833;28;100998;-81
2021/09/11 02:55:31;;;;;;;13.73;7.93;;;;;;;17.77;57.88;100200.25;4915491;28;97520;-81
2021/09/11 02:57:57;;;;;;;9.20;6.90;;;;;;;17.73;57.88;100198.75;4898330;28;96920;-81
2021/09/11 03:00:22;;;;;;;12.57;7.50;;;;;;;17.68;57.65;100196.38;4899438;28;96924;-81
2021/09/11 03:02:48;;;;;;;17.40;7.80;;;;;;;17.76;57.69;100201.22;4883195;28;101517;-80
2021/09/11 03:05:13;;;;;;;9.32;7.50;;;;;;;17.63;58.14;100191.41;4883072;28;101550;-81
2021/09/11 03:07:39;;;;;;;9.60;7.93;;;;;;;17.66;58.03;100195.66;4899610;28;97083;-81
2021/09/11 03:10:05;;;;;;;16.23;8.52;;;;;;;17.66;57.49;100195.66;4915619;28;96791;-81
2021/09/11 03:12:30;;;;;;;14.02;7.85;;;;;;;17.56;57.91;100200.69;4931457;28;97557;-81
2021/09/11 03:14:56;;;;;;;13.57;7.80;;;;;;;17.46;58.67;100193.47;4899315;28;97587;-80
2021/09/11 03:17:21;;;;;;;8.93;7.47;;;;;;;17.58;58.42;100198.81;4899244;28;96573;-81
2021/09/11 03:19:46;;;;;;;12.10;7.85;;;;;;;17.45;58.29;100189.06;4915200;28;96902;-80
2021/09/11 03:22:12;;;;;;;8.00;7.10;;;;;;;17.41;58.23;100183.97;4898311;28;101761;-81
2021/09/11 03:24:38;;;;;;;8.85;7.93;;;;;;;17.52;57.80;100191.25;4930938;28;101031;-80
2021/09/11 03:27:04;;;;;;;12.77;7.38;;;;;;;17.37;58.47;100179.81;4899129;28;96605;-80
2021/09/11 03:29:29;;;;;;;13.35;8.57;;;;;;;17.45;58.66;100195.22;4915049;28;96879;-81
2021/09/11 03:31:55;;;;;;;12.82;7.88;;;;;;;17.45;58.82;100199.69;4899106;28;97505;-81
2021/09/11 03:34:20;;;;;;;12.20;8.35;;;;;;;17.55;58.18;100199.00;4914495;28;101660;-81
2021/09/11 03:36:46;;;;;;;12.77;8.48;;;;;;;17.40;58.54;100202.66;4898927;28;96615;-80
2021/09/11 03:39:12;;;;;;;10.32;8.15;;;;;;;17.40;58.53;100205.31;4899530;28;96854;-81
2021/09/11 03:41:37;;;;;;;8.57;7.65;;;;;;;17.33;58.40;100191.56;4898989;28;97469;-81
2021/09/11 03:44:03;;;;;;;15.18;8.68;;;;;;;17.34;58.67;100205.72;4898606;28;101106;-81
2021/09/11 03:46:29;;;;;;;12.30;8.02;;;;;;;17.27;58.86;100194.63;4914431;28;96994;-81
2021/09/11 03:48:54;;;;;;;14.15;8.35;;;;;;;17.25;58.65;100193.00;4898883;28;96886;-81
2021/09/11 03:51:20;;;;;;;11.15;8.38;;;;;;;17.24;58.82;100199.28;4898533;28;97742;-81
2021/09/11 03:53:45;;;;;;;12.57;8.70;;;;;;;17.37;58.71;100189.59;4914655;28;97177;-81
2021/09/11 03:56:11;;;;;;;10.52;8.90;;;;;;;17.19;58.88;100191.59;4916255;28;96657;-81
2021/09/11 03:58:36;;;;;;;15.85;8.73;;;;;;;17.09;59.69;100193.16;4898407;28;97059;-81
2021/09/11 04:01:03;;;;;;;13.90;8.60;;;;;;;17.11;59.16;100189.44;4898213;28;101676;-81
2021/09/11 04:03:29;;;;;;;14.30;8.88;;;;;;;17.08;59.06;100194.09;4915720;28;97906;-81
2021/09/11 04:05:55;;;;;;;14.05;8.93;;;;;;;17.05;59.22;100184.53;4918690;28;96698;-81
2021/09/11 04:08:21;;;;;;;14.38;8.82;;;;;;;17.10;59.23;100194.84;4917964;28;96906;-81
2021/09/11 04:10:46;;;;;;;13.88;9.32;;;;;;;17.12;59.28;100193.78;4901375;28;100119;-81
2021/09/11 04:13:12;;;;;;;10.85;9.00;;;;;;;17.12;59.38;100193.78;4917782;28;97354;-80
2021/09/11 04:15:37;;;;;;;11.95;9.13;;;;;;;17.16;58.90;100200.63;4902153;28;96564;-81
2021/09/11 04:18:03;;;;;;;24.88;9.35;;;;;;;17.04;59.55;100200.53;4901884;28;96944;-81
2021/09/11 04:20:29;;;;;;;11.55;8.18;;;;;;;17.01;58.93;100201.56;4933700;28;101153;-81
2021/09/11 04:22:54;;;;;;;10.13;8.18;;;;;;;17.03;59.31;100206.78;4918854;28;97325;-81
2021/09/11 04:25:20;;;;;;;15.63;9.07;;;;;;;17.06;59.01;100196.84;4917999;28;96572;-81
2021/09/11 04:27:45;;;;;;;16.45;8.27;;;;;;;17.11;58.96;100200.06;4902389;28;96904;-80
2021/09/11 04:30:11;;;;;;;15.00;9.80;;;;;;;17.14;59.09;100199.84;4901265;28;101379;-81
2021/09/11 04:32:36;;;;;;;16.55;9.70;;;;;;;16.98;59.35;100194.66;4917933;28;97952;-81
2021/09/11 04:35:02;;;;;;;15.63;9.20;;;;;;;17.08;59.04;100197.59;4901047;28;96565;-81
2021/09/11 04:37:28;;;;;;;16.73;8.80;;;;;;;17.03;59.32;100201.47;4933804;28;96554;-80
2021/09/11 04:39:54;;;;;;;12.25;8.20;;;;;;;17.08;58.85;100188.78;4885463;28;101640;-80
2021/09/11 04:42:20;;;;;;;10.80;8.60;;;;;;;17.09;59.38;100207.25;4933468;28;98427;-81
2021/09/11 04:44:46;;;;;;;17.52;8.40;;;;;;;17.00;59.75;100197.22;4933940;28;96672;-81
2021/09/11 04:47:11;;;;;;;11.98;8.73;;;;;;;17.08;59.06;100210.00;4901329;28;96905;-81
2021/09/11 04:49:37;;;;;;;13.07;8.95;;;;;;;16.99;59.49;100195.53;4901445;28;98087;-81
2021/09/11 04:52:03;;;;;;;12.18;9.48;;;;;;;16.97;59.51;100197.41;4901673;28;98327;-80
2021/09/11 04:54:29;;;;;;;12.52;9.00;;;;;;;16.99;59.71;100200.84;4917131;28;96562;-80
2021/09/11 04:56:54;;;;;;;15.10;9.82;;;;;;;17.12;59.27;100199.09;4901418;28;97004;-81
2021/09/11 04:59:20;;;;;;;13.00;9.52;;;;;;;17.05;59.19;100204.91;4916037;28;98246;-81
2021/09/11 05:01:45;;;;;;;12.18;10.13;;;;;;;17.13;59.22;100205.25;4918656;28;97970;-82
2021/09/11 05:04:11;;;;;;;14.82;9.98;;;;;;;17.07;59.59;100209.13;4917175;28;96503;-81
2021/09/11 05:06:36;;;;;;;11.48;9.18;;;;;;;17.14;59.56;100215.78;4901259;28;96896;-81
2021/09/11 05:09:01;;;;;;;15.70;10.65;;;;;;;17.32;59.06;100218.22;4916977;28;98133;-80
2021/09/11 05:11:27;;;;;;;15.43;10.77;;;;;;;17.87;57.66;100226.13;4916631;28;100886;-81
2021/09/11 05:13:53;;;;;;;13.55;11.15;;;;;;;18.16;57.00;100219.84;4917285;28;96726;-81
2021/09/11 05:16:18;;;;;;;14.50;10.65;;;;;;;18.25;56.38;100220.06;4917049;28;96926;-81
2021/09/11 05:18:43;;;;;;;17.25;10.00;;;;;;;18.41;56.35;100224.34;4900632;28;101695;-81
2021/09/11 05:21:09;;;;;;;14.32;11.13;;;;;;;19.06;54.82;100221.59;4900539;28;100851;-81
2021/09/11 05:23:35;;;;;;;13.90;9.38;;;;;;;19.21;53.69;100212.53;4916905;28;96675;-81
2021/09/11 05:26:01;;;;;;;15.52;9.93;;;;;;;19.04;54.33;100207.56;4884850;28;96940;-81
2021/09/11 05:28:27;;;;;;;14.77;10.38;;;;;;;18.97;54.84;100222.25;4916365;28;101463;-81
2021/09/11 05:30:53;;;;;;;18.75;10.48;;;;;;;19.03;54.96;100216.50;4933082;28;97456;-81
2021/09/11 05:33:22;;;;;;;14.98;9.35;;;;;;;19.00;54.62;100220.22;4932698;28;96608;-81
2021/09/11 05:35:47;;;;;;;11.40;9.80;;;;;;;19.08;54.30;100206.41;4933064;28;97066;-81
2021/09/11 05:38:13;;;;;;;11.60;8.88;;;;;;;19.29;53.88;100216.47;4900200;28;101890;-80
2021/09/11 05:40:38;;;;;;;12.75;9.43;;;;;;;19.22;54.10;100218.69;4900746;28;101366;-81
2021/09/11 05:43:04;;;;;;;10.82;9.18;;;;;;;19.31;54.17;100209.19;4916852;28;96574;-81
2021/09/11 05:45:29;;;;;;;14.63;9.43;;;;;;;19.53;52.86;100211.16;4917126;28;96874;-81
2021/09/11 05:47:55;;;;;;;21.05;10.02;;;;;;;19.67;52.64;100217.19;4900069;28;97658;-81
2021/09/11 05:50:21;;;;;;;14.88;9.80;;;;;;;19.63;52.74;100218.38;4900085;28;101579;-82
2021/09/11 05:52:46;;;;;;;10.85;8.45;;;;;;;19.76;53.00;100223.66;4884585;28;96642;-81
2021/09/11 05:55:12;;;;;;;12.73;8.20;;;;;;;19.93;52.11;100229.56;4900600;28;96798;-80
2021/09/11 05:57:37;;;;;;;15.30;8.50;;;;;;;20.18;50.59;100224.06;4915930;28;97965;-81
2021/09/11 06:00:04;;;;;;;10.07;7.28;;;;;;;20.31;49.81;100211.53;4899974;28;100994;-81
2021/09/11 06:02:37;;;;;;;11.07;9.10;;;;;;;20.44;49.91;100207.91;4928909;28;96642;-81
2021/09/11 06:05:03;;;;;;;12.05;8.38;;;;;;;20.55;49.39;100208.81;4900577;28;96962;-81
2021/09/11 06:07:28;;;;;;;12.30;9.05;;;;;;;20.94;48.74;100211.13;4916040;28;97474;-81
2021/09/11 06:09:54;;;;;;;10.80;8.60;;;;;;;21.17;48.60;100215.50;4916061;28;97416;-81
2021/09/11 06:12:19;;;;;;;11.07;8.35;;;;;;;21.20;48.32;100214.41;4899403;28;96616;-81
2021/09/11 06:14:44;;;;;;;11.82;8.63;;;;;;;21.96;47.72;100214.50;4916573;28;96792;-81
2021/09/11 06:17:11;;;;;;;8.95;8.05;;;;;;;22.51;46.31;100208.03;4899176;28;101366;-82
2021/09/11 06:19:37;;;;;;;9.07;7.53;;;;;;;23.20;44.60;100212.75;4899980;28;100482;-81
2021/09/11 06:22:03;;;;;;;13.38;8.52;;;;;;;23.73;43.34;100201.75;4932197;28;96589;-81
2021/09/11 06:24:29;;;;;;;10.57;7.75;;;;;;;24.21;42.33;100210.78;4931931;28;96891;-82
2021/09/11 06:26:55;;;;;;;12.88;8.40;;;;;;;24.47;41.59;100213.75;4930428;28;101801;-81
2021/09/11 06:29:21;;;;;;;13.68;7.43;;;;;;;25.75;39.57;100204.97;4883675;28;100982;-81
2021/09/11 06:31:47;;;;;;;10.00;7.72;;;;;;;26.32;38.32;100218.94;4899992;28;96765;-82
2021/09/11 06:34:12;;;;;;;10.77;7.35;;;;;;;27.64;36.14;100221.34;4931487;28;97081;-81
2021/09/11 06:36:38;;;;;;;8.95;7.95;;;;;;;28.62;34.55;100204.38;4899224;28;97954;-81
2021/09/11 06:39:03;;;;;;;11.30;7.43;;;;;;;29.38;33.50;100204.81;4899071;28;101991;-81
2021/09/11 06:41:29;;;;;;;10.43;7.50;;;;;;;29.94;32.67;100211.75;4899496;28;96606;-82
2021/09/11 06:43:54;;;;;;;16.90;7.75;;;;;;;30.53;31.79;100212.97;4883798;28;96959;-82
2021/09/11 06:46:20;;;;;;;10.27;7.22;;;;;;;31.34;30.21;100206.63;4899053;28;101160;-80
2021/09/11 06:48:45;;;;;;;9.15;7.57;;;;;;;31.32;30.78;100207.84;4915440;28;97489;-79
2021/09/11 06:51:11;;;;;;;7.30;6.40;;;;;;;32.06;29.52;100207.66;4899344;28;96687;-78
2021/09/11 06:53:37;;;;;;;15.77;8.32;;;;;;;32.43;29.26;100205.63;4917121;28;96857;-78
2021/09/11 06:56:03;;;;;;;9.57;7.22;;;;;;;33.47;27.56;100202.06;4882999;28;101547;-78
2021/09/11 06:58:28;;;;;;;8.43;7.03;;;;;;;34.07;26.53;100196.81;4914763;28;98163;-78
2021/09/11 07:00:54;;;;;;;7.55;6.80;;;;;;;34.27;26.46;100194.94;4914958;28;96626;-78
2021/09/11 07:03:19;;;;;;;11.23;7.10;;;;;;;34.43;26.24;100197.19;4899710;28;96913;-79
2021/09/11 07:05:45;;;;;;;10.35;6.47;;;;;;;35.15;25.82;100197.28;4915178;28;97646;-78
2021/09/11 07:08:10;;;;;;;10.70;7.43;;;;;;;36.21;23.88;100196.66;4916340;28;97562;-80
2021/09/11 07:10:36;;;;;;;9.57;6.88;;;;;;;36.46;23.63;100198.56;4916992;28;96536;-80
2021/09/11 07:13:01;;;;;;;8.80;6.97;;;;;;;36.34;23.08;100209.38;4915530;28;96878;-80
2021/09/11 07:15:27;;;;;;;8.55;7.07;;;;;;;37.39;22.23;100197.53;4898704;28;100775;-79
2021/09/11 07:17:53;;;;;;;6.72;6.13;;;;;;;37.03;22.91;100191.06;4899141;28;101201;-78
2021/09/11 07:20:18;;;;;;;11.65;7.90;;;;;;;37.52;23.38;100194.63;4915187;28;96655;-76
2021/09/11 07:22:44;;;;;;;7.97;6.75;;;;;;;37.34;22.71;100203.69;4915560;28;96823;-80
2021/09/11 07:25:10;;;;;;;8.63;7.32;;;;;;;38.62;21.38;100209.75;4898083;28;101092;-77
2021/09/11 07:27:35;;;;;;;8.30;7.50;;;;;;;38.25;21.84;100192.66;4931153;28;97313;-77
2021/09/11 07:30:01;;;;;;;7.78;6.95;;;;;;;38.30;22.30;100201.03;4915499;28;96509;-77
2021/09/11 07:32:30;;;;;;;7.57;6.57;;;;;;;39.42;21.32;100199.97;4930839;28;96830;-76
2021/09/11 07:34:55;;;;;;;7.82;7.00;;;;;;;39.55;20.66;100198.81;4914602;28;97515;-76
2021/09/11 07:37:21;;;;;;;8.68;7.43;;;;;;;39.27;21.56;100207.84;4930587;28;97252;-76
2021/09/11 07:39:47;;;;;;;11.07;7.05;;;;;;;39.32;21.73;100206.06;4929951;28;96635;-77
2021/09/11 07:42:14;;;;;;;6.72;6.18;;;;;;;39.61;20.99;100206.06;4915302;28;96895;-77
2021/09/11 07:44:39;;;;;;;7.63;6.07;;;;;;;39.76;20.85;100211.88;4930765;28;97449;-76
2021/09/11 07:47:05;;;;;;;10.30;7.25;;;;;;;40.61;20.09;100209.97;4914504;28;97555;-77
2021/09/11 07:49:31;;;;;;;7.90;7.22;;;;;;;40.94;19.72;100208.25;4898080;28;96601;-87
2021/09/11 07:51:59;;;;;;;8.50;7.35;;;;;;;40.45;20.46;100216.34;4899308;28;96548;-89
2021/09/11 07:54:24;;;;;;;9.05;6.55;;;;;;;40.26;20.30;100216.59;4899176;28;101021;-85
2021/09/11 07:56:50;;;;;;;6.88;6.28;;;;;;;39.88;21.42;100221.97;4883253;28;101384;-85
2021/09/11 07:59:15;;;;;;;10.85;6.22;;;;;;;39.92;20.85;100221.22;4899246;28;96772;-85
2021/09/11 08:01:41;;;;;;;10.30;6.65;;;;;;;39.48;21.25;100218.19;4883186;28;96716;-83
2021/09/11 08:04:06;;;;;;;7.22;6.53;;;;;;;40.24;20.64;100231.69;4914651;28;98068;-83
2021/09/11 08:06:32;;;;;;;13.20;6.32;;;;;;;40.16;21.21;100235.63;4899263;28;101184;-88
2021/09/11 08:08:57;;;;;;;7.50;6.80;;;;;;;39.88;21.84;100233.78;4899070;28;96593;-85
2021/09/11 08:11:23;;;;;;;12.60;6.70;;;;;;;39.87;22.00;100225.78;4915018;28;96540;-84
2021/09/11 08:13:53;;;;;;;9.30;7.38;;;;;;;39.97;21.60;100221.31;4914174;28;98284;-83
2021/09/11 08:16:19;;;;;;;9.70;7.65;;;;;;;39.72;21.74;100226.31;4930504;28;101633;-90
2021/09/11 08:18:44;;;;;;;9.77;7.20;;;;;;;40.02;21.53;100226.06;4899771;28;96537;-83
2021/09/11 08:21:10;;;;;;;12.77;7.15;;;;;;;40.94;21.01;100230.25;4899699;28;96919;-86
2021/09/11 08:23:36;;;;;;;10.38;6.80;;;;;;;40.93;20.85;100225.81;4883139;28;101556;-87
2021/09/11 08:26:02;;;;;;;10.82;7.80;;;;;;;40.99;20.64;100218.47;4916048;28;98329;-86
2021/09/11 08:28:28;;;;;;;10.88;7.97;;;;;;;40.71;20.86;100225.81;4914791;28;96651;-85
2021/09/11 08:30:53;;;;;;;8.27;7.28;;;;;;;39.89;21.85;100226.38;4898830;28;96932;-84
2021/09/11 08:33:19;;;;;;;9.10;7.07;;;;;;;40.51;21.03;100227.16;4898687;28;97067;-88
2021/09/11 08:35:44;;;;;;;11.00;7.40;;;;;;;41.55;20.19;100230.22;4914745;28;96676;-88
2021/09/11 08:38:10;;;;;;;10.75;7.88;;;;;;;40.86;21.22;100222.44;4929735;28;96631;-82
2021/09/11 08:40:35;;;;;;;8.93;7.07;;;;;;;41.33;20.15;100228.28;4914384;28;97005;-82
2021/09/11 08:43:02;;;;;;;8.43;7.63;;;;;;;41.12;20.75;100229.13;4914452;28;97549;-81
2021/09/11 08:45:28;;;;;;;8.68;7.93;;;;;;;40.56;21.90;100226.41;4897777;28;101061;-83
2021/09/11 08:47:53;;;;;;;8.02;7.20;;;;;;;39.91;22.25;100232.44;4913912;28;96639;-78
2021/09/11 08:50:20;;;;;;;8.55;7.78;;;;;;;39.44;22.99;100233.47;4899742;28;96919;-77
2021/09/11 08:52:48;;;;;;;8.98;8.18;;;;;;;39.45;22.68;100231.56;4933044;28;97561;-77
2021/09/11 08:55:15;;;;;;;8.60;7.90;;;;;;;39.53;23.21;100225.69;4933270;28;101988;-76
2021/09/11 08:58:02;;;;;;;8.32;7.53;;;;;;;39.59;22.80;100225.56;4916555;28;96800;-78
2021/09/11 09:00:38;;;;;;;8.68;7.82;;;;;;;39.05;23.38;100235.13;4917137;28;96878;-79
2021/09/11 09:03:30;;;;;;;14.52;7.65;;;;;;;39.29;23.49;100223.00;4884605;28;101328;-79
2021/09/11 09:06:12;;;;;;;9.35;8.43;;;;;;;40.41;22.29;100234.44;4918808;28;97924;-79
2021/09/11 09:08:38;;;;;;;8.10;7.40;;;;;;;38.65;25.22;100241.34;4917282;28;96628;-80
2021/09/11 09:11:33;;;;;;;9.35;7.68;;;;;;;39.26;24.25;100239.13;4901086;28;96989;-82
2021/09/11 09:14:05;;;;;;;8.73;7.85;;;;;;;39.77;23.40;100235.53;4908172;28;98038;-81
2021/09/11 09:16:38;;;;;;;8.52;7.82;;;;;;;38.54;24.62;100237.53;4900391;28;100820;-79
2021/09/11 09:19:15;;;;;;;8.95;8.18;;;;;;;38.73;24.76;100230.03;4932989;28;96623;-78
2021/09/11 09:21:42;;;;;;;10.10;7.82;;;;;;;38.24;25.33;100237.59;4933831;28;96637;-78
2021/09/11 09:24:10;;;;;;;9.95;8.70;;;;;;;38.45;24.77;100231.56;4932451;28;97303;-78
2021/09/11 09:26:51;;;;;;;11.88;7.68;;;;;;;38.10;25.17;100238.88;4916509;28;97949;-78
2021/09/11 09:29:18;;;;;;;12.70;8.40;;;;;;;38.42;25.35;100233.94;4915949;28;96664;-78
2021/09/11 09:31:44;;;;;;;9.05;8.20;;;;;;;38.14;25.49;100235.44;4932639;28;96882;-79
2021/09/11 09:34:10;;;;;;;10.40;9.23;;;;;;;38.44;25.32;100237.28;4932219;28;101246;-79
2021/09/11 09:36:40;;;;;;;12.95;8.77;;;;;;;38.68;25.07;100227.97;4899889;28;101565;-79
2021/09/11 09:39:15;;;;;;;9.10;8.50;;;;;;;38.48;25.16;100220.13;4932881;28;96624;-78
2021/09/11 09:41:51;;;;;;;12.93;8.88;;;;;;;37.98;25.71;100228.72;4932493;28;96604;-79
2021/09/11 09:44:19;;;;;;;9.32;8.45;;;;;;;37.97;25.95;100229.00;4932264;28;97765;-79
2021/09/11 09:46:47;;;;;;;8.40;7.70;;;;;;;39.82;24.25;100229.28;4916109;28;101653;-79
2021/09/11 09:49:21;;;;;;;8.45;7.63;;;;;;;39.43;24.79;100220.00;4884202;28;96591;-79
2021/09/11 09:51:48;;;;;;;8.85;7.70;;;;;;;38.84;25.04;100220.94;4932584;28;96600;-79
2021/09/11 09:54:15;;;;;;;9.45;7.38;;;;;;;38.40;25.48;100216.91;4915098;28;101341;-79
2021/09/11 09:56:41;;;;;;;7.68;6.97;;;;;;;39.29;24.85;100213.94;4932111;28;97521;-77
2021/09/11 09:59:07;;;;;;;8.82;8.13;;;;;;;40.09;24.62;100217.63;4932273;28;96692;-76
2021/09/11 10:01:35;;;;;;;8.48;7.70;;;;;;;40.73;24.17;100213.47;4931431;28;96649;-75
2021/09/11 10:04:18;;;;;;;10.68;7.63;;;;;;;40.84;23.96;100211.69;4932281;28;98106;-75
2021/09/11 10:06:58;;;;;;;11.77;7.88;;;;;;;40.61;24.21;100220.13;4915705;28;100564;-76
2021/09/11 10:09:26;;;;;;;9.15;8.00;;;;;;;39.99;24.72;100221.06;4916215;28;96653;-76
2021/09/11 10:11:52;;;;;;;9.70;8.48;;;;;;;39.54;25.43;100222.72;4932621;28;96815;-76
2021/09/11 10:14:20;;;;;;;8.98;8.10;;;;;;;38.97;25.99;100211.63;4931916;28;97533;-75
2021/09/11 10:16:56;;;;;;;10.13;8.48;;;;;;;38.62;26.42;100219.88;4932111;28;97347;-76
2021/09/11 10:19:27;;;;;;;8.63;7.93;;;;;;;38.30;26.71;100225.69;4915781;28;96710;-76
2021/09/11 10:22:06;;;;;;;7.38;6.68;;;;;;;38.03;27.11;100225.31;4900407;28;96600;-76
2021/09/11 10:24:34;;;;;;;9.35;8.38;;;;;;;37.69;28.23;100213.16;4916105;28;97659;-76
2021/09/11 10:27:09;;;;;;;15.13;9.15;;;;;;;37.31;28.59;100217.84;4931618;28;100942;-75
2021/09/11 10:29:49;;;;;;;9.25;8.00;;;;;;;37.00;28.35;100224.31;4931919;28;96612;-75
2021/09/11 10:32:24;;;;;;;8.70;7.80;;;;;;;36.66;28.76;100228.47;4915818;28;96917;-76
2021/09/11 10:34:54;;;;;;;8.27;7.50;;;;;;;36.36;29.67;100220.91;4932024;28;98603;-76
2021/09/11 10:37:27;;;;;;;10.90;8.68;;;;;;;36.11;29.57;100217.38;4915756;28;101154;-75
2021/09/11 10:40:28;;;;;;;7.82;6.97;;;;;;;35.69;30.09;100227.91;4932538;28;96465;-75
2021/09/11 10:43:19;;;;;;;8.40;7.60;;;;;;;35.02;31.18;100227.28;4932239;28;96800;-75
2021/09/11 10:45:54;;;;;;;8.13;7.45;;;;;;;35.00;31.13;100222.06;4931123;28;99631;-75
2021/09/11 10:48:47;;;;;;;8.35;7.32;;;;;;;34.42;32.20;100220.06;4916725;28;98094;-75
2021/09/11 10:51:25;;;;;;;8.10;7.40;;;;;;;34.32;32.63;100216.06;4932195;28;96612;-75
2021/09/11 10:54:07;;;;;;;10.02;7.50;;;;;;;34.02;32.75;100206.38;4931979;28;96630;-75
2021/09/11 10:56:39;;;;;;;8.05;7.35;;;;;;;33.85;33.29;100218.72;4930738;28;99374;-75
2021/09/11 10:59:20;;;;;;;8.00;7.00;;;;;;;33.54;34.16;100211.09;4930499;28;100936;-75
2021/09/11 11:01:58;;;;;;;8.40;7.60;;;;;;;33.10;35.24;100215.09;4915940;28;96565;-74
2021/09/11 11:04:28;;;;;;;10.32;7.20;;;;;;;32.84;34.95;100218.47;4917198;28;96912;-74
2021/09/11 11:06:56;;;;;;;8.20;7.40;;;;;;;32.80;35.40;100207.19;4916757;28;98257;-75
2021/09/11 11:09:22;;;;;;;10.07;7.63;;;;;;;32.76;35.43;100218.66;4899033;28;100791;-75
2021/09/11 11:11:49;;;;;;;7.70;6.97;;;;;;;32.65;35.87;100215.44;4931042;28;96625;-75
2021/09/11 11:14:15;;;;;;;10.45;7.30;;;;;;;32.60;35.59;100211.66;4931050;28;96800;-75
2021/09/11 11:16:49;;;;;;;9.13;8.20;;;;;;;32.25;35.56;100197.97;4930533;28;101398;-75
2021/09/11 11:19:27;;;;;;;10.75;8.20;;;;;;;32.08;36.70;100211.00;4931230;28;97575;-75